Time;durP1;ratioP1;P1;durP2;ratioP2;P2;SDS_P1;SDS_P2;PMS_P1;PMS_P2;Temp;Humidity;BMP_temperature;BMP_pressure;BME280_temperature;BME280_humidity;BME280_pressure;Samples;Min_cycle;Max_cycle;Signal;HPM_P1;HPM_P2
2023/01/08 00:02:00;;;;;;;23.67;14.35;;;;;;;6.01;100.00;98830.00;5041070;28;20044;-60
2023/01/08 00:04:32;;;;;;;20.17;14.00;;;;;;;5.97;100.00;98810.50;5027373;28;20067;-63
2023/01/08 00:07:00;;;;;;;23.05;13.25;;;;;;;5.88;100.00;98801.63;5043100;28;20059;-62
2023/01/08 00:09:28;;;;;;;20.50;12.60;;;;;;;5.95;100.00;98800.28;5045426;28;20030;-62
2023/01/08 00:12:03;;;;;;;22.50;13.68;;;;;;;5.95;100.00;98802.00;5030191;28;20066;-63
2023/01/08 00:14:29;;;;;;;19.50;12.80;;;;;;;6.08;100.00;98797.66;5034514;28;20036;-59
2023/01/08 00:16:56;;;;;;;20.20;13.40;;;;;;;6.17;100.00;98793.56;5019686;28;20041;-63
2023/01/08 00:19:21;;;;;;;21.58;12.30;;;;;;;6.12;100.00;98783.56;5043804;28;20028;-64
2023/01/08 00:21:47;;;;;;;19.38;13.13;;;;;;;6.10;100.00;98777.69;5018048;28;20048;-64
2023/01/08 00:24:12;;;;;;;21.83;13.77;;;;;;;6.07;100.00;98779.69;5022543;28;20037;-59
2023/01/08 00:26:38;;;;;;;27.48;15.07;;;;;;;6.05;100.00;98768.66;5026770;28;20424;-64
2023/01/08 00:29:06;;;;;;;21.77;13.27;;;;;;;6.15;100.00;98767.88;5020312;28;20490;-62
2023/01/08 00:31:31;;;;;;;22.58;13.68;;;;;;;6.20;100.00;98762.34;5005748;28;20029;-63
2023/01/08 00:33:57;;;;;;;21.48;14.02;;;;;;;5.88;100.00;98716.47;5019640;28;20036;-62
2023/01/08 00:36:22;;;;;;;22.65;14.93;;;;;;;6.09;100.00;98745.06;5002735;28;20033;-61
2023/01/08 00:38:48;;;;;;;21.48;13.23;;;;;;;6.00;100.00;98750.09;5024040;28;20056;-59
2023/01/08 00:41:15;;;;;;;22.90;13.68;;;;;;;5.96;100.00;98747.72;5019962;28;20044;-61
2023/01/08 00:43:40;;;;;;;20.48;14.20;;;;;;;5.98;100.00;98737.28;5025138;28;20812;-63
2023/01/08 00:46:07;;;;;;;20.50;13.65;;;;;;;5.86;100.00;98730.41;5025688;28;20025;-63
2023/01/08 00:48:37;;;;;;;24.15;14.35;;;;;;;5.70;100.00;98725.56;5007974;28;20518;-62
2023/01/08 00:51:04;;;;;;;23.08;13.95;;;;;;;5.71;100.00;98714.28;5029779;28;20083;-62
2023/01/08 00:53:29;;;;;;;23.30;13.82;;;;;;;5.67;100.00;98710.28;5013712;28;20453;-63
2023/01/08 00:56:06;;;;;;;24.40;14.38;;;;;;;5.68;100.00;98710.19;5022385;28;20037;-61
2023/01/08 00:58:31;;;;;;;23.30;15.02;;;;;;;5.65;100.00;98717.31;5024814;28;20032;-63
2023/01/08 01:00:57;;;;;;;23.13;15.38;;;;;;;5.67;100.00;98725.75;5008310;28;20396;-62
2023/01/08 01:03:23;;;;;;;22.85;15.65;;;;;;;5.71;100.00;98740.94;5003736;28;20538;-65
2023/01/08 01:05:49;;;;;;;24.48;15.35;;;;;;;5.74;100.00;98742.44;5008807;28;20090;-63
2023/01/08 01:08:15;;;;;;;23.08;15.10;;;;;;;5.85;100.00;98757.97;4996604;28;20024;-63
2023/01/08 01:10:40;;;;;;;27.67;15.82;;;;;;;5.81;100.00;98733.34;5016276;28;20573;-64
2023/01/08 01:13:06;;;;;;;27.48;16.30;;;;;;;5.92;100.00;98754.00;5018339;28;20484;-63
2023/01/08 01:15:32;;;;;;;23.33;15.02;;;;;;;5.95;100.00;98746.09;5007395;28;20460;-63
2023/01/08 01:17:57;;;;;;;24.15;15.27;;;;;;;5.68;100.00;98701.63;5010943;28;20029;-61
2023/01/08 01:20:24;;;;;;;22.25;13.93;;;;;;;5.51;100.00;98693.34;5027308;28;20471;-68
2023/01/08 01:22:49;;;;;;;24.80;15.40;;;;;;;5.75;100.00;98720.88;5042909;28;20083;-61
2023/01/08 01:25:15;;;;;;;25.25;14.70;;;;;;;5.83;100.00;98731.47;5023600;28;20468;-63
2023/01/08 01:27:41;;;;;;;26.08;15.63;;;;;;;5.91;100.00;98744.66;5045434;28;20103;-63
2023/01/08 01:30:07;;;;;;;26.60;16.50;;;;;;;5.97;100.00;98733.06;5036557;28;20060;-63
2023/01/08 01:32:33;;;;;;;24.40;15.93;;;;;;;5.88;100.00;98729.38;5044479;28;20036;-62
2023/01/08 01:34:58;;;;;;;22.90;15.00;;;;;;;5.85;100.00;98727.00;5037344;28;20475;-64
2023/01/08 01:37:24;;;;;;;24.40;16.25;;;;;;;5.96;100.00;98724.47;5042624;28;20099;-63
2023/01/08 01:39:49;;;;;;;27.55;15.32;;;;;;;5.82;100.00;98722.06;5031927;28;20032;-63
2023/01/08 01:45:03;;;;;;;22.15;14.50;;;;;;;5.91;100.00;98726.56;5046588;28;20054;-65
2023/01/08 01:47:37;;;;;;;24.08;14.80;;;;;;;5.97;100.00;98727.91;5035975;28;20099;-62
2023/01/08 01:50:07;;;;;;;24.02;15.70;;;;;;;6.02;100.00;98733.53;5021817;28;20032;-63
2023/01/08 01:52:38;;;;;;;22.58;14.55;;;;;;;6.04;100.00;98723.94;5045574;28;20467;-64
2023/01/08 01:55:05;;;;;;;21.75;13.73;;;;;;;6.05;100.00;98735.09;5031258;28;20036;-64
2023/01/08 01:57:32;;;;;;;24.80;15.32;;;;;;;5.95;100.00;98740.03;5044902;28;20032;-63
2023/01/08 01:59:58;;;;;;;24.13;14.95;;;;;;;6.10;100.00;98735.56;5027229;28;20100;-65
2023/01/08 02:02:24;;;;;;;22.13;14.70;;;;;;;6.03;100.00;98732.63;5024642;28;20660;-64
2023/01/08 02:04:49;;;;;;;21.52;14.90;;;;;;;6.07;100.00;98723.69;5022866;28;20048;-67
2023/01/08 02:07:31;;;;;;;22.40;13.88;;;;;;;6.11;100.00;98722.53;5038306;28;20035;-63
2023/01/08 02:10:08;;;;;;;24.00;14.88;;;;;;;6.09;100.00;98714.06;5025846;28;20462;-64
2023/01/08 02:12:41;;;;;;;23.30;15.18;;;;;;;5.46;100.00;98610.31;5024966;28;20035;-62
2023/01/08 02:15:37;;;;;;;22.52;15.35;;;;;;;5.81;100.00;98650.75;5024826;28;20402;-63
2023/01/08 02:18:17;;;;;;;21.10;13.82;;;;;;;6.08;100.00;98684.06;5044586;28;20049;-64
2023/01/08 02:20:47;;;;;;;;;;;;;;;6.06;100.00;98698.84;5041484;28;20033;-61
2023/01/08 02:23:47;;;;;;;21.83;13.45;;;;;;;6.16;100.00;98704.13;5019769;28;19920;-63
2023/01/08 02:26:23;;;;;;;23.70;15.38;;;;;;;6.11;100.00;98704.47;5037077;28;20112;-62
2023/01/08 02:29:10;;;;;;;23.30;15.13;;;;;;;6.14;100.00;98714.56;5036864;28;20079;-63
2023/01/08 02:31:38;;;;;;;21.35;14.45;;;;;;;6.03;100.00;98721.47;5020769;28;20036;-64
2023/01/08 02:34:04;;;;;;;25.20;15.85;;;;;;;6.01;100.00;98713.03;5020431;28;20077;-63
2023/01/08 02:36:34;;;;;;;24.35;15.30;;;;;;;5.83;100.00;98681.63;5030548;28;20033;-63
2023/01/08 02:39:06;;;;;;;23.50;14.88;;;;;;;5.81;100.00;98671.41;5035695;28;20051;-64
2023/01/08 02:41:45;;;;;;;24.67;15.95;;;;;;;5.76;100.00;98671.72;5039630;28;20104;-63
2023/01/08 02:44:12;;;;;;;26.27;15.68;;;;;;;6.05;100.00;98711.84;5059749;28;20036;-63
2023/01/08 02:46:38;;;;;;;23.13;14.85;;;;;;;6.00;100.00;98713.94;5023350;28;20043;-63
2023/01/08 02:49:07;;;;;;;22.45;15.15;;;;;;;5.96;100.00;98706.41;5027247;28;20553;-62
2023/01/08 02:52:05;;;;;;;22.70;14.75;;;;;;;5.88;100.00;98713.88;5036232;28;20802;-63
2023/01/08 02:54:33;;;;;;;21.95;14.05;;;;;;;5.92;100.00;98710.13;4997294;28;20574;-64
2023/01/08 02:57:11;;;;;;;25.40;15.68;;;;;;;6.02;100.00;98715.47;5031462;28;20039;-64
2023/01/08 02:59:39;;;;;;;24.35;14.88;;;;;;;5.87;100.00;98698.50;5037107;28;20055;-65
2023/01/08 03:02:05;;;;;;;23.52;14.73;;;;;;;5.89;100.00;98704.38;5031286;28;20044;-63
2023/01/08 03:04:35;;;;;;;23.50;15.77;;;;;;;5.88;100.00;98713.06;5030139;28;20033;-63
2023/01/08 03:07:01;;;;;;;24.35;14.77;;;;;;;5.63;100.00;98663.25;5037165;28;20101;-64
2023/01/08 03:09:27;;;;;;;25.65;15.88;;;;;;;5.82;100.00;98698.84;5043803;28;20028;-62
2023/01/08 03:12:09;;;;;;;24.33;15.95;;;;;;;5.86;100.00;98694.28;5046089;28;20025;-62
2023/01/08 03:14:40;;;;;;;25.23;15.45;;;;;;;5.90;100.00;98695.72;5043649;28;20060;-63
2023/01/08 03:17:13;;;;;;;25.08;15.93;;;;;;;5.91;100.00;98690.44;5028277;28;20082;-63
2023/01/08 03:19:42;;;;;;;27.88;16.42;;;;;;;5.96;100.00;98678.03;5042852;28;20462;-64
2023/01/08 03:22:10;;;;;;;24.73;15.95;;;;;;;6.04;100.00;98674.06;5033988;28;20024;-63
2023/01/08 03:24:37;;;;;;;26.40;14.90;;;;;;;6.02;100.00;98669.00;5023659;28;20029;-62
2023/01/08 03:27:05;;;;;;;22.98;15.32;;;;;;;6.09;100.00;98657.28;5040755;28;20064;-61
2023/01/08 03:29:30;;;;;;;27.40;15.55;;;;;;;6.15;100.00;98653.41;5042059;28;20036;-63
2023/01/08 03:32:02;;;;;;;23.77;15.40;;;;;;;6.16;100.00;98637.81;5046711;28;20420;-62
2023/01/08 03:34:30;;;;;;;22.70;15.05;;;;;;;6.18;100.00;98652.38;5042593;28;20051;-63
2023/01/08 03:36:57;;;;;;;23.33;15.10;;;;;;;6.23;100.00;98640.75;5049929;28;20110;-63
2023/01/08 03:39:30;;;;;;;25.48;16.00;;;;;;;6.09;100.00;98612.59;5028195;28;20029;-60
2023/01/08 03:41:59;;;;;;;24.45;15.32;;;;;;;6.26;100.00;98627.63;5031048;28;20027;-64
2023/01/08 03:44:25;;;;;;;22.37;14.67;;;;;;;6.22;100.00;98620.22;5045632;28;20115;-63
2023/01/08 03:46:53;;;;;;;22.75;14.07;;;;;;;6.25;100.00;98625.97;5027393;28;20612;-63
2023/01/08 03:49:21;;;;;;;22.55;14.65;;;;;;;6.20;100.00;98619.53;5031558;28;20081;-63
2023/01/08 03:51:47;;;;;;;23.58;15.02;;;;;;;6.18;100.00;98617.03;5043967;28;20032;-63
2023/01/08 03:54:16;;;;;;;23.02;15.68;;;;;;;6.27;100.00;98628.44;5030658;28;20074;-63
2023/01/08 03:56:41;;;;;;;24.13;14.93;;;;;;;6.25;100.00;98631.13;5037453;28;20059;-63
2023/01/08 03:59:07;;;;;;;23.67;14.82;;;;;;;6.27;100.00;98615.53;5027675;28;20111;-62
2023/01/08 04:01:33;;;;;;;23.15;14.93;;;;;;;6.27;100.00;98600.84;5045405;28;20033;-63
2023/01/08 04:03:58;;;;;;;23.27;14.80;;;;;;;6.22;100.00;98597.78;5027981;28;20054;-64
2023/01/08 04:06:24;;;;;;;25.15;15.32;;;;;;;6.20;100.00;98591.13;5026674;28;20170;-63
2023/01/08 04:08:49;;;;;;;26.17;15.18;;;;;;;6.06;100.00;98579.25;5045844;28;20032;-62
2023/01/08 04:11:15;;;;;;;23.88;15.43;;;;;;;5.86;100.00;98575.56;5044147;28;20068;-65
2023/01/08 04:13:42;;;;;;;23.08;14.23;;;;;;;5.90;100.00;98574.41;5038417;28;20032;-69
2023/01/08 04:16:07;;;;;;;22.85;15.00;;;;;;;5.85;100.00;98567.00;5020877;28;20039;-65
2023/01/08 04:18:33;;;;;;;23.67;15.05;;;;;;;5.82;100.00;98582.72;5064245;28;20758;-64
2023/01/08 04:20:58;;;;;;;24.85;15.68;;;;;;;5.83;100.00;98591.28;5058251;28;20695;-69
2023/01/08 04:23:25;;;;;;;24.77;15.45;;;;;;;5.77;100.00;98595.97;5043405;28;20139;-64
2023/01/08 04:25:51;;;;;;;25.48;15.15;;;;;;;5.88;100.00;98595.19;5022560;28;20152;-69
2023/01/08 04:28:17;;;;;;;27.05;16.80;;;;;;;5.71;100.00;98564.63;5038075;28;20058;-65
2023/01/08 04:30:42;;;;;;;27.70;17.52;;;;;;;5.91;100.00;98592.38;5063574;28;20110;-70
2023/01/08 04:33:08;;;;;;;25.02;15.98;;;;;;;5.89;100.00;98575.34;5023833;28;20038;-69
2023/01/08 04:35:34;;;;;;;26.40;16.30;;;;;;;5.85;100.00;98568.78;5042612;28;20502;-64
2023/01/08 04:37:59;;;;;;;25.15;16.55;;;;;;;6.08;100.00;98596.28;5043290;28;20033;-68
2023/01/08 04:40:24;;;;;;;26.75;16.90;;;;;;;5.91;100.00;98574.31;5044013;28;20059;-64
2023/01/08 04:42:50;;;;;;;28.45;17.23;;;;;;;5.99;100.00;98583.22;5045949;28;20510;-65
2023/01/08 04:45:16;;;;;;;24.52;17.25;;;;;;;5.76;100.00;98541.91;5063073;28;20056;-68
2023/01/08 04:47:41;;;;;;;27.75;17.20;;;;;;;6.00;100.00;98579.72;5042032;28;20058;-67
2023/01/08 04:50:07;;;;;;;27.17;16.90;;;;;;;5.94;100.00;98566.31;5041007;28;20032;-64
2023/01/08 04:52:33;;;;;;;28.10;16.88;;;;;;;5.93;100.00;98564.69;5044750;28;20032;-63
2023/01/08 04:54:58;;;;;;;28.10;17.02;;;;;;;5.92;100.00;98567.38;5061699;28;20039;-64
2023/01/08 04:57:24;;;;;;;27.92;17.83;;;;;;;5.88;100.00;98556.47;5023731;28;20108;-70
2023/01/08 04:59:49;;;;;;;24.13;17.00;;;;;;;5.89;100.00;98552.13;5044599;28;20036;-64
2023/01/08 05:02:15;;;;;;;28.52;17.27;;;;;;;5.95;100.00;98547.34;5042577;28;20071;-64
2023/01/08 05:04:40;;;;;;;25.17;17.13;;;;;;;5.87;100.00;98554.81;5039068;28;20472;-66
2023/01/08 05:07:06;;;;;;;27.35;17.75;;;;;;;5.74;100.00;98544.59;5043645;28;20082;-64
2023/01/08 05:09:32;;;;;;;27.77;16.63;;;;;;;5.73;100.00;98542.13;5029548;28;20040;-65
2023/01/08 05:11:58;;;;;;;27.48;17.60;;;;;;;5.73;100.00;98537.81;5043448;28;20511;-64
2023/01/08 05:14:23;;;;;;;27.30;17.23;;;;;;;5.75;100.00;98519.63;5030951;28;20028;-64
2023/01/08 05:16:49;;;;;;;29.52;18.83;;;;;;;5.81;100.00;98520.94;5043716;28;20091;-63
2023/01/08 05:19:14;;;;;;;29.92;18.10;;;;;;;5.76;100.00;98519.50;5043660;28;20598;-63
2023/01/08 05:21:40;;;;;;;30.05;18.67;;;;;;;5.75;100.00;98519.63;5063319;28;20206;-65
2023/01/08 05:24:06;;;;;;;29.58;18.23;;;;;;;5.74;100.00;98512.81;5054984;28;20033;-64
2023/01/08 05:26:32;;;;;;;28.90;17.88;;;;;;;5.71;100.00;98524.19;5020802;28;20205;-64
2023/01/08 05:28:58;;;;;;;25.73;17.55;;;;;;;5.75;100.00;98528.19;5045693;28;20021;-63
2023/01/08 05:31:24;;;;;;;26.75;17.52;;;;;;;5.48;100.00;98491.59;5044029;28;20033;-62
2023/01/08 05:33:50;;;;;;;30.65;17.30;;;;;;;5.81;100.00;98537.22;5063612;28;20491;-64
2023/01/08 05:36:16;;;;;;;27.77;17.85;;;;;;;5.82;100.00;98531.09;5032978;28;20025;-67
2023/01/08 05:38:41;;;;;;;27.25;17.83;;;;;;;5.92;100.00;98539.00;5027753;28;20033;-64
2023/01/08 05:41:07;;;;;;;27.27;17.88;;;;;;;5.93;100.00;98540.63;5020905;28;20032;-67
2023/01/08 05:43:33;;;;;;;28.30;18.33;;;;;;;5.78;100.00;98521.97;5046676;28;20036;-63
2023/01/08 05:45:59;;;;;;;30.92;18.13;;;;;;;5.94;100.00;98563.72;5057993;28;20033;-65
2023/01/08 05:48:26;;;;;;;28.13;17.45;;;;;;;5.92;100.00;98567.38;5044969;28;20059;-61
2023/01/08 05:50:53;;;;;;;27.05;17.27;;;;;;;5.95;100.00;98574.88;5024969;28;20056;-64
2023/01/08 05:53:18;;;;;;;25.20;16.73;;;;;;;5.96;100.00;98572.19;5022595;28;20758;-63
2023/01/08 05:55:44;;;;;;;27.98;17.20;;;;;;;6.02;100.00;98572.69;5043545;28;20130;-67
2023/01/08 05:58:10;;;;;;;28.35;18.02;;;;;;;5.99;100.00;98572.91;5061929;28;20057;-65
2023/01/08 06:00:36;;;;;;;30.02;17.55;;;;;;;5.92;100.00;98557.06;5030661;28;20039;-64
2023/01/08 06:03:02;;;;;;;25.90;17.52;;;;;;;5.78;100.00;98512.44;5040606;28;20029;-67
2023/01/08 06:05:31;;;;;;;31.60;18.33;;;;;;;5.93;100.00;98566.41;5031107;28;20602;-64
2023/01/08 06:07:58;;;;;;;26.60;17.30;;;;;;;5.95;100.00;98559.38;5042093;28;20024;-63
2023/01/08 06:10:24;;;;;;;29.85;18.88;;;;;;;5.89;100.00;98547.78;5042687;28;20145;-63
2023/01/08 06:12:49;;;;;;;30.15;19.38;;;;;;;5.97;100.00;98547.25;5064270;28;20021;-64
2023/01/08 06:15:15;;;;;;;32.10;19.48;;;;;;;6.01;100.00;98542.66;5041751;28;20502;-63
2023/01/08 06:17:41;;;;;;;29.15;19.15;;;;;;;5.76;100.00;98523.84;5045546;28;20528;-65
2023/01/08 06:20:07;;;;;;;28.90;17.83;;;;;;;5.85;100.00;98542.97;5027243;28;20020;-65
2023/01/08 06:22:33;;;;;;;29.45;18.48;;;;;;;5.88;100.00;98543.56;5033855;28;20506;-66
2023/01/08 06:24:58;;;;;;;30.58;19.00;;;;;;;5.87;100.00;98534.16;5045572;28;20475;-66
2023/01/08 06:27:24;;;;;;;27.63;17.58;;;;;;;5.99;100.00;98534.19;5045857;28;20040;-64
2023/01/08 06:29:49;;;;;;;31.45;19.23;;;;;;;6.00;100.00;98535.84;5062879;28;20082;-64
2023/01/08 06:32:15;;;;;;;29.60;19.55;;;;;;;6.01;100.00;98525.41;5041980;28;20098;-64
2023/01/08 06:34:40;;;;;;;29.33;18.15;;;;;;;6.02;100.00;98527.03;5035979;28;20495;-64
2023/01/08 06:37:06;;;;;;;30.55;19.23;;;;;;;6.03;100.00;98525.28;5050412;28;20028;-64
2023/01/08 06:39:31;;;;;;;31.33;18.60;;;;;;;5.93;100.00;98531.13;5030983;28;20664;-64
2023/01/08 06:41:57;;;;;;;31.67;19.52;;;;;;;5.95;100.00;98516.38;5051040;28;20105;-65
2023/01/08 06:44:22;;;;;;;32.63;18.33;;;;;;;5.91;100.00;98512.38;5038814;28;20078;-62
2023/01/08 06:46:48;;;;;;;34.92;20.58;;;;;;;5.92;100.00;98523.50;5032848;28;20036;-60
2023/01/08 06:49:13;;;;;;;30.23;19.70;;;;;;;5.97;100.00;98527.41;5034606;28;20033;-64
2023/01/08 06:51:39;;;;;;;29.58;18.58;;;;;;;5.89;100.00;98508.25;5045595;28;20038;-63
2023/01/08 06:54:05;;;;;;;31.77;18.33;;;;;;;5.65;100.00;98443.88;5051451;28;20765;-63
2023/01/08 06:56:30;;;;;;;31.98;18.95;;;;;;;6.08;100.00;98499.97;5035580;28;20578;-63
2023/01/08 06:58:56;;;;;;;32.15;18.63;;;;;;;6.16;100.00;98506.16;5046010;28;20017;-64
2023/01/08 07:01:21;;;;;;;28.05;17.75;;;;;;;6.19;100.00;98504.25;5050816;28;20036;-63
2023/01/08 07:03:47;;;;;;;27.42;17.25;;;;;;;6.11;100.00;98497.94;5029899;28;20036;-64
2023/01/08 07:06:18;;;;;;;28.02;17.98;;;;;;;5.94;100.00;98468.25;5048881;28;20158;-63
2023/01/08 07:08:44;;;;;;;29.38;17.75;;;;;;;6.22;100.00;98511.78;5052889;28;20044;-64
2023/01/08 07:11:10;;;;;;;30.20;18.63;;;;;;;6.26;100.00;98514.00;5042760;28;20060;-64
2023/01/08 07:13:36;;;;;;;30.23;19.10;;;;;;;6.32;100.00;98518.69;5035299;28;20063;-62
2023/01/08 07:16:08;;;;;;;31.13;18.25;;;;;;;6.30;100.00;98525.75;5062146;28;20702;-63
2023/01/08 07:18:35;;;;;;;30.35;18.92;;;;;;;6.23;100.00;98516.00;5033253;28;20025;-60
2023/01/08 07:21:02;;;;;;;27.00;17.90;;;;;;;6.08;100.00;98511.09;5035105;28;20036;-65
2023/01/08 07:23:27;;;;;;;32.47;19.02;;;;;;;6.13;100.00;98503.81;5026627;28;20112;-63
2023/01/08 07:25:53;;;;;;;29.00;17.98;;;;;;;6.16;100.00;98507.91;5048382;28;20123;-64
2023/01/08 07:28:18;;;;;;;28.27;18.10;;;;;;;6.14;100.00;98507.22;5049342;28;20107;-66
2023/01/08 07:30:44;;;;;;;29.40;17.95;;;;;;;6.17;100.00;98504.41;5033328;28;20049;-63
2023/01/08 07:33:09;;;;;;;27.20;17.17;;;;;;;6.12;100.00;98506.50;5051920;28;20403;-64
2023/01/08 07:35:35;;;;;;;25.98;16.75;;;;;;;6.15;100.00;98522.59;5029459;28;20071;-63
2023/01/08 07:38:01;;;;;;;27.92;17.30;;;;;;;6.20;100.00;98509.31;5051860;28;20025;-64
2023/01/08 07:40:45;;;;;;;26.17;17.63;;;;;;;6.12;100.00;98507.31;5033621;28;20041;-61
2023/01/08 07:43:13;;;;;;;30.02;18.38;;;;;;;6.11;100.00;98504.84;5032593;28;20683;-63
2023/01/08 07:45:39;;;;;;;26.73;17.05;;;;;;;6.15;100.00;98512.25;5046623;28;20035;-64
2023/01/08 07:48:05;;;;;;;27.63;17.60;;;;;;;6.19;100.00;98501.69;5031669;28;20537;-63
2023/01/08 07:50:31;;;;;;;28.75;16.85;;;;;;;6.32;100.00;98507.53;5028332;28;20144;-63
2023/01/08 07:52:58;;;;;;;28.92;18.08;;;;;;;6.20;100.00;98498.97;5044272;28;20056;-65
2023/01/08 07:55:24;;;;;;;28.58;17.67;;;;;;;6.15;100.00;98495.94;5045092;28;20024;-65
2023/01/08 07:57:49;;;;;;;28.25;18.27;;;;;;;6.08;100.00;98500.78;5030044;28;20044;-63
2023/01/08 08:00:15;;;;;;;25.38;16.20;;;;;;;6.08;100.00;98507.69;5045151;28;20063;-64
2023/01/08 08:02:40;;;;;;;27.63;17.77;;;;;;;6.06;100.00;98494.91;5030040;28;20740;-66
2023/01/08 08:05:06;;;;;;;25.95;17.15;;;;;;;5.92;100.00;98487.38;5047616;28;20084;-62
2023/01/08 08:07:31;;;;;;;26.15;16.63;;;;;;;5.97;100.00;98474.97;5029329;28;20040;-64
2023/01/08 08:09:57;;;;;;;27.23;17.02;;;;;;;5.71;100.00;98441.66;5032546;28;20027;-63
2023/01/08 08:12:22;;;;;;;26.48;16.42;;;;;;;6.09;100.00;98478.34;5037282;28;20033;-62
2023/01/08 08:14:48;;;;;;;27.35;18.05;;;;;;;6.07;100.00;98483.63;5029840;28;20028;-64
2023/01/08 08:17:13;;;;;;;27.45;17.75;;;;;;;5.86;100.00;98460.28;5025657;28;20546;-62
2023/01/08 08:19:42;;;;;;;27.73;17.73;;;;;;;6.12;100.00;98502.16;5050899;28;20021;-64
2023/01/08 08:22:08;;;;;;;26.90;17.30;;;;;;;6.14;100.00;98491.72;5048907;28;20111;-63
2023/01/08 08:24:34;;;;;;;26.27;17.15;;;;;;;6.12;100.00;98499.59;5047391;28;20046;-64
2023/01/08 08:26:59;;;;;;;25.30;17.35;;;;;;;5.95;100.00;98475.09;5029835;28;20852;-63
2023/01/08 08:29:25;;;;;;;27.83;17.20;;;;;;;6.14;100.00;98500.28;5030505;28;20424;-62
2023/01/08 08:31:50;;;;;;;28.88;17.65;;;;;;;6.07;100.00;98499.13;5025770;28;20407;-63
2023/01/08 08:34:16;;;;;;;29.23;18.25;;;;;;;6.08;100.00;98490.44;5031077;28;20097;-63
2023/01/08 08:36:41;;;;;;;26.70;17.45;;;;;;;6.11;100.00;98489.38;5028823;28;20093;-63
2023/01/08 08:39:07;;;;;;;30.42;18.45;;;;;;;6.05;100.00;98489.84;5044759;28;20470;-66
2023/01/08 08:41:32;;;;;;;29.15;17.52;;;;;;;6.05;100.00;98475.19;5027452;28;20060;-61
2023/01/08 08:43:58;;;;;;;29.08;18.45;;;;;;;6.01;100.00;98478.94;5030483;28;20028;-63
2023/01/08 08:46:24;;;;;;;27.23;17.13;;;;;;;6.02;100.00;98466.84;5027803;28;20036;-65
2023/01/08 08:48:49;;;;;;;29.88;18.50;;;;;;;5.99;100.00;98461.94;5041933;28;20039;-62
2023/01/08 08:51:15;;;;;;;27.80;17.33;;;;;;;6.00;100.00;98463.56;5027719;28;20480;-63
2023/01/08 08:53:40;;;;;;;27.92;17.55;;;;;;;5.97;100.00;98449.97;5029665;28;20499;-64
2023/01/08 08:56:06;;;;;;;29.95;17.58;;;;;;;5.94;100.00;98436.47;5029000;28;20028;-64
2023/01/08 08:58:31;;;;;;;29.60;18.70;;;;;;;6.06;100.00;98450.19;5045132;28;20059;-63
2023/01/08 09:01:02;;;;;;;29.15;17.80;;;;;;;6.03;100.00;98445.28;5023339;28;20043;-63
2023/01/08 09:03:28;;;;;;;26.08;17.65;;;;;;;6.05;100.00;98443.41;5026307;28;20025;-63
2023/01/08 09:05:53;;;;;;;28.30;17.95;;;;;;;6.03;100.00;98448.66;5034137;28;20029;-64
2023/01/08 09:08:19;;;;;;;30.15;18.13;;;;;;;6.01;100.00;98442.81;5029356;28;20507;-64
2023/01/08 09:10:44;;;;;;;29.60;18.45;;;;;;;6.04;100.00;98446.91;5060690;28;20828;-63
2023/01/08 09:13:10;;;;;;;26.13;17.00;;;;;;;6.08;100.00;98443.97;5028005;28;20514;-64
2023/01/08 09:15:37;;;;;;;27.85;17.65;;;;;;;5.96;100.00;98450.91;5027895;28;20120;-66
2023/01/08 09:18:02;;;;;;;25.92;17.75;;;;;;;5.88;100.00;98427.44;5032939;28;20594;-67
2023/01/08 09:20:28;;;;;;;33.25;19.25;;;;;;;5.96;100.00;98434.59;5046573;28;20033;-64
2023/01/08 09:22:53;;;;;;;32.08;20.00;;;;;;;5.90;100.00;98440.22;5043458;28;20029;-65
2023/01/08 09:25:19;;;;;;;32.20;19.23;;;;;;;5.91;100.00;98439.25;5024128;28;20040;-66
2023/01/08 09:27:45;;;;;;;31.00;19.42;;;;;;;5.91;100.00;98439.25;5044882;28;20802;-65
2023/01/08 09:30:11;;;;;;;28.75;19.33;;;;;;;5.94;100.00;98447.59;5043719;28;20043;-69
2023/01/08 09:32:37;;;;;;;32.85;20.25;;;;;;;5.94;100.00;98439.84;5020318;28;20116;-69
2023/01/08 09:35:04;;;;;;;35.28;21.88;;;;;;;6.02;100.00;98435.88;5044830;28;20123;-68
2023/01/08 09:37:29;;;;;;;31.08;18.92;;;;;;;6.02;100.00;98430.72;5041660;28;20024;-69
2023/01/08 09:39:55;;;;;;;28.88;18.58;;;;;;;6.03;100.00;98416.88;5041203;28;20028;-73
2023/01/08 09:42:23;;;;;;;30.00;18.40;;;;;;;5.86;100.00;98380.28;5038382;28;20037;-67
2023/01/08 09:44:51;;;;;;;29.13;19.08;;;;;;;6.04;100.00;98426.25;5045727;28;20039;-64
2023/01/08 09:47:33;;;;;;;33.75;20.63;;;;;;;6.07;100.00;98424.25;5025688;28;20120;-70
2023/01/08 09:50:03;;;;;;;33.30;21.40;;;;;;;6.06;100.00;98429.53;5025233;28;20798;-69
2023/01/08 09:52:30;;;;;;;32.97;20.05;;;;;;;5.98;100.00;98427.56;5026424;28;20058;-63
2023/01/08 09:54:57;;;;;;;33.08;18.30;;;;;;;5.99;100.00;98431.78;5028707;28;20055;-70
2023/01/08 09:57:24;;;;;;;29.42;18.20;;;;;;;5.89;100.00;98429.06;5031073;28;20494;-65
2023/01/08 09:59:50;;;;;;;33.83;20.30;;;;;;;6.03;100.00;98429.78;5038574;28;20056;-63
2023/01/08 10:02:19;;;;;;;35.10;20.05;;;;;;;6.12;100.00;98427.31;5036717;28;20107;-73
2023/01/08 10:04:47;;;;;;;31.05;18.52;;;;;;;6.00;100.00;98402.44;5026816;28;20059;-65
2023/01/08 10:07:20;;;;;;;33.72;19.70;;;;;;;6.19;100.00;98421.63;5030078;28;20048;-63
2023/01/08 10:09:50;;;;;;;30.73;18.80;;;;;;;6.21;100.00;98412.84;5024405;28;20035;-65
2023/01/08 10:12:29;;;;;;;29.80;18.40;;;;;;;6.24;100.00;98407.44;5045511;28;20116;-66
2023/01/08 10:14:59;;;;;;;29.42;18.10;;;;;;;6.32;100.00;98410.22;5029002;28;20431;-66
2023/01/08 10:17:28;;;;;;;;;;;;;;;6.15;100.00;98410.72;5046436;28;20051;-64
2023/01/08 10:19:54;;;;;;;29.08;17.30;;;;;;;6.16;100.00;98395.13;5045505;28;19928;-66
2023/01/08 10:22:22;;;;;;;30.00;19.13;;;;;;;5.89;100.00;98356.00;5066336;28;20040;-63
2023/01/08 10:24:48;;;;;;;29.65;19.02;;;;;;;6.13;100.00;98390.22;5024319;28;20475;-63
2023/01/08 10:27:17;;;;;;;30.67;19.52;;;;;;;6.14;100.00;98383.28;5033733;28;20082;-63
2023/01/08 10:29:46;;;;;;;29.02;18.73;;;;;;;5.96;100.00;98376.06;5040523;28;20090;-67
2023/01/08 10:32:15;;;;;;;28.25;17.88;;;;;;;5.93;100.00;98381.44;5027901;28;20033;-63
2023/01/08 10:34:44;;;;;;;29.27;19.25;;;;;;;5.95;100.00;98365.81;5020168;28;20123;-65
2023/01/08 10:37:27;;;;;;;28.15;18.05;;;;;;;5.90;100.00;98368.78;5046014;28;20434;-62
2023/01/08 10:40:00;;;;;;;25.42;17.08;;;;;;;5.93;100.00;98370.28;5024010;28;20391;-61
2023/01/08 10:42:26;;;;;;;28.30;18.15;;;;;;;5.81;100.00;98356.59;5037066;28;20186;-66
2023/01/08 10:44:56;;;;;;;29.98;17.65;;;;;;;5.80;100.00;98360.09;5026786;28;20127;-63
2023/01/08 10:47:28;;;;;;;29.50;18.52;;;;;;;5.88;100.00;98356.94;5045741;28;20067;-60
2023/01/08 10:49:54;;;;;;;29.35;17.48;;;;;;;6.01;100.00;98360.22;5042750;28;20028;-62
2023/01/08 10:52:35;;;;;;;27.33;17.83;;;;;;;5.99;100.00;98363.84;5040074;28;20048;-61
2023/01/08 10:55:37;;;;;;;28.90;17.58;;;;;;;6.05;100.00;98353.88;5026582;28;20578;-65
2023/01/08 10:58:13;;;;;;;25.80;16.10;;;;;;;5.97;100.00;98349.31;5028502;28;20135;-59
2023/01/08 11:00:39;;;;;;;24.02;16.27;;;;;;;6.07;100.00;98366.66;5038580;28;20044;-62
2023/01/08 11:03:06;;;;;;;27.40;16.80;;;;;;;6.02;100.00;98358.44;5045195;28;20675;-62
2023/01/08 11:05:37;;;;;;;25.88;16.83;;;;;;;6.08;100.00;98365.72;5040868;28;20475;-61
2023/01/08 11:08:13;;;;;;;24.13;16.15;;;;;;;6.05;100.00;98358.22;5036582;28;20106;-62
2023/01/08 11:10:39;;;;;;;26.85;17.00;;;;;;;5.87;100.00;98327.72;5033834;28;20074;-62
2023/01/08 11:13:07;;;;;;;25.88;16.65;;;;;;;6.06;100.00;98349.50;5046327;28;20453;-62
2023/01/08 11:15:37;;;;;;;25.40;16.75;;;;;;;6.11;100.00;98357.72;5027374;28;20022;-59
2023/01/08 11:18:12;;;;;;;;;;;;;;;6.17;100.00;98344.34;5031878;28;20101;-61
2023/01/08 11:20:40;;;;;;;25.08;15.50;;;;;;;6.01;100.00;98318.13;5038211;28;19916;-60
2023/01/08 11:23:25;;;;;;;27.58;17.38;;;;;;;6.15;100.00;98341.03;5030342;28;20063;-65